Leetonia, Pennsylvania
Current Conditions -  °F | °C
As of 3:55 AM on Thursday 23 Oct 2014 (Local Time) from KN38 Reporting Station
Overcast Overcast  
Wind Chill: 37°   Ceiling: 1500
Heat Index: 45°   Visibility: 10mi
Dew Point: 39°   Wind: 18mph
Humidity: 81%   Direction: 10°N
Pressure: 29.99"   Gusts: 26mph
Location:  41.4987°N, 77.4907°W
Report Text: KN38 230755Z AUTO 01016G23KT 10SM OVC015 07/04 A2999 RMK AO2
Loading
Personal Weather Stations






























Interactive Weather Map
Tropical Storm Tracking
New forecast layout! Learn more

10-Day Weather Forecast

Advertisements
Track Severe Weather on mobile